sensor_id;sensor_type;location;lat;lon;timestamp;P1;durP1;ratioP1;P2;durP2;ratioP2
72209;SDS011;60113;48.762;12.302;2022-10-17T00:00:46;61.30;;;20.63;;
72209;SDS011;60113;48.762;12.302;2022-10-17T00:03:12;56.75;;;24.55;;
72209;SDS011;60113;48.762;12.302;2022-10-17T00:05:38;83.35;;;28.23;;
72209;SDS011;60113;48.762;12.302;2022-10-17T00:08:05;63.63;;;25.48;;
72209;SDS011;60113;48.762;12.302;2022-10-17T00:10:30;50.45;;;20.05;;
72209;SDS011;60113;48.762;12.302;2022-10-17T00:12:56;35.63;;;14.77;;
72209;SDS011;60113;48.762;12.302;2022-10-17T00:15:22;30.35;;;14.05;;
72209;SDS011;60113;48.762;12.302;2022-10-17T00:17:47;42.85;;;16.75;;
72209;SDS011;60113;48.762;12.302;2022-10-17T00:20:14;42.78;;;16.30;;
72209;SDS011;60113;48.762;12.302;2022-10-17T00:22:40;26.23;;;14.30;;
72209;SDS011;60113;48.762;12.302;2022-10-17T00:25:06;29.35;;;13.73;;
72209;SDS011;60113;48.762;12.302;2022-10-17T00:27:34;31.38;;;13.32;;
72209;SDS011;60113;48.762;12.302;2022-10-17T00:30:02;36.83;;;14.00;;
72209;SDS011;60113;48.762;12.302;2022-10-17T00:32:28;51.05;;;19.27;;
72209;SDS011;60113;48.762;12.302;2022-10-17T00:34:53;64.90;;;27.98;;
72209;SDS011;60113;48.762;12.302;2022-10-17T00:37:19;74.40;;;30.58;;
72209;SDS011;60113;48.762;12.302;2022-10-17T00:39:45;108.45;;;35.83;;
72209;SDS011;60113;48.762;12.302;2022-10-17T00:42:11;86.40;;;34.10;;
72209;SDS011;60113;48.762;12.302;2022-10-17T00:47:09;77.43;;;28.02;;
72209;SDS011;60113;48.762;12.302;2022-10-17T00:49:39;73.35;;;28.77;;
72209;SDS011;60113;48.762;12.302;2022-10-17T00:52:06;66.05;;;26.25;;
72209;SDS011;60113;48.762;12.302;2022-10-17T00:54:40;59.70;;;26.85;;
72209;SDS011;60113;48.762;12.302;2022-10-17T00:57:13;55.88;;;22.50;;
72209;SDS011;60113;48.762;12.302;2022-10-17T00:59:43;52.30;;;18.40;;
72209;SDS011;60113;48.762;12.302;2022-10-17T01:02:15;35.22;;;15.68;;
72209;SDS011;60113;48.762;12.302;2022-10-17T01:04:43;33.03;;;15.10;;
72209;SDS011;60113;48.762;12.302;2022-10-17T01:07:12;41.50;;;17.42;;
72209;SDS011;60113;48.762;12.302;2022-10-17T01:09:37;45.17;;;18.67;;
72209;SDS011;60113;48.762;12.302;2022-10-17T01:14:53;49.15;;;21.13;;
72209;SDS011;60113;48.762;12.302;2022-10-17T01:23:23;80.97;;;27.33;;
72209;SDS011;60113;48.762;12.302;2022-10-17T01:26:10;73.22;;;25.90;;
72209;SDS011;60113;48.762;12.302;2022-10-17T01:31:20;44.03;;;19.77;;
72209;SDS011;60113;48.762;12.302;2022-10-17T01:39:13;50.45;;;18.38;;
72209;SDS011;60113;48.762;12.302;2022-10-17T01:44:14;80.28;;;24.10;;
72209;SDS011;60113;48.762;12.302;2022-10-17T01:46:48;68.20;;;24.77;;
72209;SDS011;60113;48.762;12.302;2022-10-17T01:49:16;57.45;;;22.45;;
72209;SDS011;60113;48.762;12.302;2022-10-17T01:51:56;47.10;;;20.55;;
72209;SDS011;60113;48.762;12.302;2022-10-17T01:54:29;47.40;;;20.38;;
72209;SDS011;60113;48.762;12.302;2022-10-17T01:57:03;48.17;;;19.88;;
72209;SDS011;60113;48.762;12.302;2022-10-17T01:59:40;83.63;;;21.50;;
72209;SDS011;60113;48.762;12.302;2022-10-17T02:02:08;72.00;;;26.00;;
72209;SDS011;60113;48.762;12.302;2022-10-17T02:04:36;66.40;;;27.77;;
72209;SDS011;60113;48.762;12.302;2022-10-17T02:07:06;84.47;;;25.98;;
72209;SDS011;60113;48.762;12.302;2022-10-17T02:09:37;61.97;;;23.75;;
72209;SDS011;60113;48.762;12.302;2022-10-17T02:15:02;102.57;;;25.17;;
72209;SDS011;60113;48.762;12.302;2022-10-17T02:20:37;103.80;;;42.33;;
72209;SDS011;60113;48.762;12.302;2022-10-17T02:23:23;133.23;;;48.05;;
72209;SDS011;60113;48.762;12.302;2022-10-17T02:28:46;120.80;;;50.47;;
72209;SDS011;60113;48.762;12.302;2022-10-17T02:31:21;129.68;;;48.80;;
72209;SDS011;60113;48.762;12.302;2022-10-17T02:34:11;120.97;;;49.90;;
72209;SDS011;60113;48.762;12.302;2022-10-17T02:36:39;117.10;;;44.50;;
72209;SDS011;60113;48.762;12.302;2022-10-17T02:39:10;74.38;;;34.67;;
72209;SDS011;60113;48.762;12.302;2022-10-17T02:41:37;64.63;;;29.33;;
72209;SDS011;60113;48.762;12.302;2022-10-17T02:44:05;49.80;;;22.88;;
72209;SDS011;60113;48.762;12.302;2022-10-17T02:46:32;57.10;;;24.55;;
72209;SDS011;60113;48.762;12.302;2022-10-17T02:54:27;65.20;;;27.30;;
72209;SDS011;60113;48.762;12.302;2022-10-17T02:59:39;83.20;;;29.95;;
72209;SDS011;60113;48.762;12.302;2022-10-17T03:02:09;80.88;;;31.73;;
72209;SDS011;60113;48.762;12.302;2022-10-17T03:04:34;61.28;;;25.40;;
72209;SDS011;60113;48.762;12.302;2022-10-17T03:07:00;67.10;;;26.80;;
72209;SDS011;60113;48.762;12.302;2022-10-17T03:09:26;62.08;;;26.88;;
72209;SDS011;60113;48.762;12.302;2022-10-17T03:11:51;53.15;;;22.25;;
72209;SDS011;60113;48.762;12.302;2022-10-17T03:14:17;51.83;;;19.92;;
72209;SDS011;60113;48.762;12.302;2022-10-17T03:16:42;54.75;;;17.73;;
72209;SDS011;60113;48.762;12.302;2022-10-17T03:19:08;66.30;;;29.45;;
72209;SDS011;60113;48.762;12.302;2022-10-17T03:21:33;53.38;;;22.55;;
72209;SDS011;60113;48.762;12.302;2022-10-17T03:24:01;73.30;;;28.80;;
72209;SDS011;60113;48.762;12.302;2022-10-17T03:26:28;79.97;;;29.15;;
72209;SDS011;60113;48.762;12.302;2022-10-17T03:28:53;65.65;;;28.40;;
72209;SDS011;60113;48.762;12.302;2022-10-17T03:31:19;62.88;;;26.90;;
72209;SDS011;60113;48.762;12.302;2022-10-17T03:33:45;53.10;;;22.55;;
72209;SDS011;60113;48.762;12.302;2022-10-17T03:36:12;76.18;;;27.38;;
72209;SDS011;60113;48.762;12.302;2022-10-17T03:38:39;76.53;;;28.30;;
72209;SDS011;60113;48.762;12.302;2022-10-17T03:41:05;102.43;;;35.75;;
72209;SDS011;60113;48.762;12.302;2022-10-17T03:43:30;110.53;;;38.83;;
72209;SDS011;60113;48.762;12.302;2022-10-17T03:45:56;158.55;;;44.67;;
72209;SDS011;60113;48.762;12.302;2022-10-17T03:48:23;349.92;;;46.72;;
72209;SDS011;60113;48.762;12.302;2022-10-17T03:50:49;260.20;;;53.58;;
72209;SDS011;60113;48.762;12.302;2022-10-17T03:53:15;446.02;;;64.82;;
72209;SDS011;60113;48.762;12.302;2022-10-17T03:55:40;154.45;;;44.03;;
72209;SDS011;60113;48.762;12.302;2022-10-17T03:58:06;136.02;;;38.53;;
72209;SDS011;60113;48.762;12.302;2022-10-17T04:00:31;105.93;;;31.08;;
72209;SDS011;60113;48.762;12.302;2022-10-17T04:02:57;88.38;;;26.90;;
72209;SDS011;60113;48.762;12.302;2022-10-17T04:05:23;86.80;;;25.48;;
72209;SDS011;60113;48.762;12.302;2022-10-17T04:07:48;138.20;;;31.60;;
72209;SDS011;60113;48.762;12.302;2022-10-17T04:10:14;104.72;;;28.73;;
72209;SDS011;60113;48.762;12.302;2022-10-17T04:12:40;102.45;;;26.00;;
72209;SDS011;60113;48.762;12.302;2022-10-17T04:15:05;93.03;;;26.83;;
72209;SDS011;60113;48.762;12.302;2022-10-17T04:17:31;107.05;;;28.42;;
72209;SDS011;60113;48.762;12.302;2022-10-17T04:19:57;104.13;;;39.80;;
72209;SDS011;60113;48.762;12.302;2022-10-17T04:22:22;119.43;;;36.75;;
72209;SDS011;60113;48.762;12.302;2022-10-17T04:24:48;143.85;;;41.35;;
72209;SDS011;60113;48.762;12.302;2022-10-17T04:27:13;142.60;;;42.25;;
72209;SDS011;60113;48.762;12.302;2022-10-17T04:29:39;137.57;;;40.28;;
72209;SDS011;60113;48.762;12.302;2022-10-17T04:32:05;92.10;;;34.58;;
72209;SDS011;60113;48.762;12.302;2022-10-17T04:34:30;186.48;;;37.72;;
72209;SDS011;60113;48.762;12.302;2022-10-17T04:36:56;165.68;;;41.97;;
72209;SDS011;60113;48.762;12.302;2022-10-17T04:39:21;239.15;;;44.90;;
72209;SDS011;60113;48.762;12.302;2022-10-17T04:41:47;244.35;;;46.83;;
72209;SDS011;60113;48.762;12.302;2022-10-17T04:44:12;364.25;;;52.15;;
72209;SDS011;60113;48.762;12.302;2022-10-17T04:46:38;313.65;;;50.60;;
72209;SDS011;60113;48.762;12.302;2022-10-17T04:49:04;401.77;;;61.00;;
72209;SDS011;60113;48.762;12.302;2022-10-17T04:51:29;362.42;;;52.63;;
72209;SDS011;60113;48.762;12.302;2022-10-17T04:53:55;479.23;;;71.50;;
72209;SDS011;60113;48.762;12.302;2022-10-17T04:56:21;256.98;;;49.25;;
72209;SDS011;60113;48.762;12.302;2022-10-17T04:58:48;290.50;;;57.72;;
72209;SDS011;60113;48.762;12.302;2022-10-17T05:01:18;346.27;;;51.22;;
72209;SDS011;60113;48.762;12.302;2022-10-17T05:03:45;351.80;;;47.78;;
72209;SDS011;60113;48.762;12.302;2022-10-17T05:06:12;197.27;;;40.28;;
72209;SDS011;60113;48.762;12.302;2022-10-17T05:08:44;361.50;;;54.53;;
72209;SDS011;60113;48.762;12.302;2022-10-17T05:11:19;226.27;;;40.85;;
72209;SDS011;60113;48.762;12.302;2022-10-17T05:13:51;233.73;;;42.55;;
72209;SDS011;60113;48.762;12.302;2022-10-17T05:16:18;238.70;;;55.25;;
72209;SDS011;60113;48.762;12.302;2022-10-17T05:18:46;243.02;;;52.15;;
72209;SDS011;60113;48.762;12.302;2022-10-17T05:21:14;165.80;;;41.65;;
72209;SDS011;60113;48.762;12.302;2022-10-17T05:23:39;199.60;;;51.95;;
72209;SDS011;60113;48.762;12.302;2022-10-17T05:26:05;157.43;;;39.72;;
72209;SDS011;60113;48.762;12.302;2022-10-17T05:28:31;179.90;;;42.28;;
72209;SDS011;60113;48.762;12.302;2022-10-17T05:31:00;218.18;;;46.50;;
72209;SDS011;60113;48.762;12.302;2022-10-17T05:33:30;277.10;;;48.83;;
72209;SDS011;60113;48.762;12.302;2022-10-17T05:35:55;172.82;;;43.85;;
72209;SDS011;60113;48.762;12.302;2022-10-17T05:38:21;129.55;;;37.70;;
72209;SDS011;60113;48.762;12.302;2022-10-17T05:40:47;97.22;;;32.08;;
72209;SDS011;60113;48.762;12.302;2022-10-17T05:43:12;146.02;;;33.80;;
72209;SDS011;60113;48.762;12.302;2022-10-17T05:45:39;136.55;;;36.45;;
72209;SDS011;60113;48.762;12.302;2022-10-17T05:48:04;189.63;;;35.70;;
72209;SDS011;60113;48.762;12.302;2022-10-17T05:50:30;174.15;;;36.13;;
72209;SDS011;60113;48.762;12.302;2022-10-17T05:52:56;320.13;;;58.45;;
72209;SDS011;60113;48.762;12.302;2022-10-17T05:55:21;762.63;;;213.13;;
72209;SDS011;60113;48.762;12.302;2022-10-17T05:57:48;179.73;;;36.65;;
72209;SDS011;60113;48.762;12.302;2022-10-17T06:00:14;200.23;;;33.50;;
72209;SDS011;60113;48.762;12.302;2022-10-17T06:02:40;191.85;;;31.33;;
72209;SDS011;60113;48.762;12.302;2022-10-17T06:05:07;105.40;;;26.60;;
72209;SDS011;60113;48.762;12.302;2022-10-17T06:07:34;149.30;;;27.73;;
72209;SDS011;60113;48.762;12.302;2022-10-17T06:10:00;135.70;;;28.23;;
72209;SDS011;60113;48.762;12.302;2022-10-17T06:12:25;142.18;;;28.73;;
72209;SDS011;60113;48.762;12.302;2022-10-17T06:14:51;164.57;;;29.42;;
72209;SDS011;60113;48.762;12.302;2022-10-17T06:17:16;136.27;;;28.52;;
72209;SDS011;60113;48.762;12.302;2022-10-17T06:19:42;93.35;;;26.05;;
72209;SDS011;60113;48.762;12.302;2022-10-17T06:22:08;97.70;;;24.73;;
72209;SDS011;60113;48.762;12.302;2022-10-17T06:24:34;81.95;;;22.73;;
72209;SDS011;60113;48.762;12.302;2022-10-17T06:26:59;118.57;;;22.50;;
72209;SDS011;60113;48.762;12.302;2022-10-17T06:29:25;99.78;;;22.25;;
72209;SDS011;60113;48.762;12.302;2022-10-17T06:31:50;110.90;;;27.70;;
72209;SDS011;60113;48.762;12.302;2022-10-17T06:34:15;186.73;;;29.35;;
72209;SDS011;60113;48.762;12.302;2022-10-17T06:36:41;178.55;;;28.92;;
72209;SDS011;60113;48.762;12.302;2022-10-17T06:39:06;158.82;;;31.80;;
72209;SDS011;60113;48.762;12.302;2022-10-17T06:41:32;132.15;;;30.50;;
72209;SDS011;60113;48.762;12.302;2022-10-17T06:43:58;94.80;;;26.60;;
72209;SDS011;60113;48.762;12.302;2022-10-17T06:46:23;170.73;;;29.25;;
72209;SDS011;60113;48.762;12.302;2022-10-17T06:48:51;157.68;;;29.80;;
72209;SDS011;60113;48.762;12.302;2022-10-17T06:51:16;171.55;;;35.65;;
72209;SDS011;60113;48.762;12.302;2022-10-17T06:53:42;118.95;;;31.27;;
72209;SDS011;60113;48.762;12.302;2022-10-17T06:56:13;147.15;;;31.52;;
72209;SDS011;60113;48.762;12.302;2022-10-17T06:58:39;125.05;;;23.02;;
72209;SDS011;60113;48.762;12.302;2022-10-17T07:01:10;67.95;;;18.08;;
72209;SDS011;60113;48.762;12.302;2022-10-17T07:03:37;97.45;;;14.45;;
72209;SDS011;60113;48.762;12.302;2022-10-17T07:06:08;115.78;;;19.20;;
72209;SDS011;60113;48.762;12.302;2022-10-17T07:08:37;87.95;;;18.48;;
72209;SDS011;60113;48.762;12.302;2022-10-17T07:11:14;203.48;;;24.00;;
72209;SDS011;60113;48.762;12.302;2022-10-17T07:13:42;97.20;;;20.23;;
72209;SDS011;60113;48.762;12.302;2022-10-17T07:16:08;106.15;;;19.25;;
72209;SDS011;60113;48.762;12.302;2022-10-17T07:18:36;65.60;;;17.42;;
72209;SDS011;60113;48.762;12.302;2022-10-17T07:21:01;44.33;;;16.50;;
72209;SDS011;60113;48.762;12.302;2022-10-17T07:23:28;44.92;;;18.30;;
72209;SDS011;60113;48.762;12.302;2022-10-17T07:25:57;57.47;;;21.05;;
72209;SDS011;60113;48.762;12.302;2022-10-17T07:28:24;66.50;;;33.97;;
72209;SDS011;60113;48.762;12.302;2022-10-17T07:30:49;166.05;;;29.48;;
72209;SDS011;60113;48.762;12.302;2022-10-17T07:33:15;35.70;;;18.40;;
72209;SDS011;60113;48.762;12.302;2022-10-17T07:35:40;134.00;;;19.30;;
72209;SDS011;60113;48.762;12.302;2022-10-17T07:38:06;115.47;;;29.08;;
72209;SDS011;60113;48.762;12.302;2022-10-17T07:40:31;37.45;;;11.57;;
72209;SDS011;60113;48.762;12.302;2022-10-17T07:42:57;16.60;;;9.82;;
72209;SDS011;60113;48.762;12.302;2022-10-17T07:45:22;17.15;;;8.90;;
72209;SDS011;60113;48.762;12.302;2022-10-17T07:47:48;35.97;;;10.48;;
72209;SDS011;60113;48.762;12.302;2022-10-17T07:50:14;19.17;;;10.50;;
72209;SDS011;60113;48.762;12.302;2022-10-17T07:52:39;21.98;;;11.55;;
72209;SDS011;60113;48.762;12.302;2022-10-17T07:55:07;22.83;;;10.63;;
72209;SDS011;60113;48.762;12.302;2022-10-17T07:57:33;14.80;;;9.80;;
72209;SDS011;60113;48.762;12.302;2022-10-17T07:59:58;15.90;;;10.43;;
72209;SDS011;60113;48.762;12.302;2022-10-17T08:02:24;36.88;;;11.10;;
72209;SDS011;60113;48.762;12.302;2022-10-17T08:04:51;22.77;;;11.43;;
72209;SDS011;60113;48.762;12.302;2022-10-17T08:07:17;15.98;;;9.80;;
72209;SDS011;60113;48.762;12.302;2022-10-17T08:09:44;13.90;;;9.82;;
72209;SDS011;60113;48.762;12.302;2022-10-17T08:12:10;16.52;;;9.57;;
72209;SDS011;60113;48.762;12.302;2022-10-17T08:14:35;42.28;;;18.95;;
72209;SDS011;60113;48.762;12.302;2022-10-17T08:17:01;22.33;;;7.60;;
72209;SDS011;60113;48.762;12.302;2022-10-17T08:19:26;13.95;;;7.35;;
72209;SDS011;60113;48.762;12.302;2022-10-17T08:21:54;9.77;;;6.60;;
72209;SDS011;60113;48.762;12.302;2022-10-17T08:24:20;9.48;;;7.32;;
72209;SDS011;60113;48.762;12.302;2022-10-17T08:26:45;14.85;;;10.52;;
72209;SDS011;60113;48.762;12.302;2022-10-17T08:29:11;19.77;;;12.13;;
72209;SDS011;60113;48.762;12.302;2022-10-17T08:31:38;12.18;;;9.48;;
72209;SDS011;60113;48.762;12.302;2022-10-17T08:34:03;13.25;;;8.43;;
72209;SDS011;60113;48.762;12.302;2022-10-17T08:36:29;15.38;;;10.50;;
72209;SDS011;60113;48.762;12.302;2022-10-17T08:38:54;36.65;;;11.02;;
72209;SDS011;60113;48.762;12.302;2022-10-17T08:41:42;20.23;;;10.70;;
72209;SDS011;60113;48.762;12.302;2022-10-17T08:46:42;17.50;;;10.77;;
72209;SDS011;60113;48.762;12.302;2022-10-17T08:49:36;14.32;;;10.43;;
72209;SDS011;60113;48.762;12.302;2022-10-17T08:55:21;15.43;;;11.63;;
72209;SDS011;60113;48.762;12.302;2022-10-17T08:57:56;15.63;;;12.23;;
72209;SDS011;60113;48.762;12.302;2022-10-17T09:00:22;22.40;;;12.77;;
72209;SDS011;60113;48.762;12.302;2022-10-17T09:03:00;18.88;;;12.60;;
72209;SDS011;60113;48.762;12.302;2022-10-17T09:05:51;18.00;;;12.38;;
72209;SDS011;60113;48.762;12.302;2022-10-17T09:13:48;19.25;;;11.50;;
72209;SDS011;60113;48.762;12.302;2022-10-17T09:19:14;15.73;;;11.77;;
72209;SDS011;60113;48.762;12.302;2022-10-17T09:21:42;15.80;;;11.77;;
72209;SDS011;60113;48.762;12.302;2022-10-17T09:24:56;16.92;;;10.95;;
72209;SDS011;60113;48.762;12.302;2022-10-17T09:27:01;15.25;;;10.93;;
72209;SDS011;60113;48.762;12.302;2022-10-17T09:29:27;17.25;;;11.80;;
72209;SDS011;60113;48.762;12.302;2022-10-17T09:31:57;15.38;;;11.82;;
72209;SDS011;60113;48.762;12.302;2022-10-17T09:34:25;17.73;;;12.68;;
72209;SDS011;60113;48.762;12.302;2022-10-17T09:36:53;15.45;;;11.00;;
72209;SDS011;60113;48.762;12.302;2022-10-17T09:39:21;15.70;;;10.77;;
72209;SDS011;60113;48.762;12.302;2022-10-17T09:41:53;14.70;;;10.60;;
72209;SDS011;60113;48.762;12.302;2022-10-17T09:44:27;16.58;;;11.52;;
72209;SDS011;60113;48.762;12.302;2022-10-17T09:47:01;18.45;;;11.38;;
72209;SDS011;60113;48.762;12.302;2022-10-17T09:49:32;16.08;;;11.90;;
72209;SDS011;60113;48.762;12.302;2022-10-17T09:52:11;15.68;;;11.23;;
72209;SDS011;60113;48.762;12.302;2022-10-17T09:54:46;18.55;;;10.30;;
72209;SDS011;60113;48.762;12.302;2022-10-17T09:57:12;14.45;;;11.13;;
72209;SDS011;60113;48.762;12.302;2022-10-17T09:59:40;17.15;;;11.30;;
72209;SDS011;60113;48.762;12.302;2022-10-17T10:02:13;15.38;;;11.70;;
72209;SDS011;60113;48.762;12.302;2022-10-17T10:07:40;13.75;;;11.20;;
72209;SDS011;60113;48.762;12.302;2022-10-17T10:10:07;13.98;;;10.80;;
72209;SDS011;60113;48.762;12.302;2022-10-17T10:13:01;18.65;;;10.80;;
72209;SDS011;60113;48.762;12.302;2022-10-17T10:15:29;19.52;;;11.18;;
72209;SDS011;60113;48.762;12.302;2022-10-17T10:17:57;15.32;;;10.68;;
72209;SDS011;60113;48.762;12.302;2022-10-17T10:20:25;13.77;;;10.63;;
72209;SDS011;60113;48.762;12.302;2022-10-17T10:23:26;13.27;;;9.98;;
72209;SDS011;60113;48.762;12.302;2022-10-17T10:25:53;12.38;;;8.55;;
72209;SDS011;60113;48.762;12.302;2022-10-17T10:28:22;12.25;;;8.98;;
72209;SDS011;60113;48.762;12.302;2022-10-17T10:30:51;10.75;;;7.78;;
72209;SDS011;60113;48.762;12.302;2022-10-17T10:33:22;13.48;;;7.90;;
72209;SDS011;60113;48.762;12.302;2022-10-17T10:35:51;20.50;;;7.30;;
72209;SDS011;60113;48.762;12.302;2022-10-17T10:38:23;7.28;;;6.10;;
72209;SDS011;60113;48.762;12.302;2022-10-17T10:41:10;9.70;;;6.60;;
72209;SDS011;60113;48.762;12.302;2022-10-17T10:46:26;10.02;;;5.90;;
72209;SDS011;60113;48.762;12.302;2022-10-17T10:48:53;8.32;;;5.22;;
72209;SDS011;60113;48.762;12.302;2022-10-17T11:07:02;4.25;;;3.00;;
72209;SDS011;60113;48.762;12.302;2022-10-17T11:09:56;9.55;;;3.22;;
72209;SDS011;60113;48.762;12.302;2022-10-17T11:12:23;6.60;;;2.72;;
72209;SDS011;60113;48.762;12.302;2022-10-17T11:17:33;7.18;;;2.72;;
72209;SDS011;60113;48.762;12.302;2022-10-17T11:22:37;4.78;;;3.15;;
72209;SDS011;60113;48.762;12.302;2022-10-17T11:27:37;10.52;;;3.28;;
72209;SDS011;60113;48.762;12.302;2022-10-17T11:30:03;6.05;;;3.13;;
72209;SDS011;60113;48.762;12.302;2022-10-17T11:35:14;9.00;;;3.08;;
72209;SDS011;60113;48.762;12.302;2022-10-17T11:37:46;6.82;;;3.20;;
72209;SDS011;60113;48.762;12.302;2022-10-17T11:40:21;11.90;;;2.90;;
72209;SDS011;60113;48.762;12.302;2022-10-17T11:45:42;4.35;;;2.83;;
72209;SDS011;60113;48.762;12.302;2022-10-17T11:48:16;2.65;;;2.45;;
72209;SDS011;60113;48.762;12.302;2022-10-17T11:51:16;3.88;;;2.60;;
72209;SDS011;60113;48.762;12.302;2022-10-17T11:53:46;3.95;;;2.30;;
72209;SDS011;60113;48.762;12.302;2022-10-17T11:56:18;3.97;;;2.95;;
72209;SDS011;60113;48.762;12.302;2022-10-17T12:02:10;6.60;;;2.67;;
72209;SDS011;60113;48.762;12.302;2022-10-17T12:07:26;4.30;;;2.38;;
72209;SDS011;60113;48.762;12.302;2022-10-17T12:12:54;2.47;;;2.28;;
72209;SDS011;60113;48.762;12.302;2022-10-17T12:18:01;6.72;;;2.38;;
72209;SDS011;60113;48.762;12.302;2022-10-17T12:20:32;6.03;;;2.50;;
72209;SDS011;60113;48.762;12.302;2022-10-17T12:25:36;5.53;;;2.50;;
72209;SDS011;60113;48.762;12.302;2022-10-17T12:28:15;2.65;;;2.40;;
72209;SDS011;60113;48.762;12.302;2022-10-17T13:02:41;5.20;;;2.50;;
72209;SDS011;60113;48.762;12.302;2022-10-17T13:05:10;5.38;;;2.67;;
72209;SDS011;60113;48.762;12.302;2022-10-17T13:07:41;4.00;;;2.30;;
72209;SDS011;60113;48.762;12.302;2022-10-17T13:10:18;6.07;;;2.53;;
72209;SDS011;60113;48.762;12.302;2022-10-17T13:12:46;3.90;;;2.40;;
72209;SDS011;60113;48.762;12.302;2022-10-17T13:15:15;4.80;;;2.47;;
72209;SDS011;60113;48.762;12.302;2022-10-17T13:17:43;20.83;;;2.97;;
72209;SDS011;60113;48.762;12.302;2022-10-17T13:20:18;4.03;;;2.50;;
72209;SDS011;60113;48.762;12.302;2022-10-17T13:22:47;2.90;;;2.33;;
72209;SDS011;60113;48.762;12.302;2022-10-17T13:25:14;5.55;;;2.70;;
72209;SDS011;60113;48.762;12.302;2022-10-17T13:27:41;5.75;;;3.10;;
72209;SDS011;60113;48.762;12.302;2022-10-17T13:33:18;10.77;;;2.95;;
72209;SDS011;60113;48.762;12.302;2022-10-17T13:35:54;7.35;;;3.15;;
72209;SDS011;60113;48.762;12.302;2022-10-17T13:38:22;4.03;;;3.10;;
72209;SDS011;60113;48.762;12.302;2022-10-17T13:40:50;6.40;;;3.05;;
72209;SDS011;60113;48.762;12.302;2022-10-17T13:43:17;3.47;;;2.72;;
72209;SDS011;60113;48.762;12.302;2022-10-17T13:45:53;3.35;;;2.40;;
72209;SDS011;60113;48.762;12.302;2022-10-17T13:48:22;4.38;;;2.65;;
72209;SDS011;60113;48.762;12.302;2022-10-17T13:50:54;5.38;;;2.97;;
72209;SDS011;60113;48.762;12.302;2022-10-17T13:53:34;4.80;;;3.10;;
72209;SDS011;60113;48.762;12.302;2022-10-17T13:58:41;6.30;;;3.28;;
72209;SDS011;60113;48.762;12.302;2022-10-17T14:01:11;11.38;;;3.30;;
72209;SDS011;60113;48.762;12.302;2022-10-17T14:03:39;6.53;;;2.75;;
72209;SDS011;60113;48.762;12.302;2022-10-17T14:11:23;9.50;;;3.03;;
72209;SDS011;60113;48.762;12.302;2022-10-17T14:13:52;11.10;;;3.25;;
72209;SDS011;60113;48.762;12.302;2022-10-17T14:16:19;6.75;;;2.85;;
72209;SDS011;60113;48.762;12.302;2022-10-17T14:18:46;7.82;;;3.00;;
72209;SDS011;60113;48.762;12.302;2022-10-17T14:21:22;4.60;;;2.85;;
72209;SDS011;60113;48.762;12.302;2022-10-17T14:23:49;7.47;;;3.20;;
72209;SDS011;60113;48.762;12.302;2022-10-17T14:26:20;16.58;;;3.50;;
72209;SDS011;60113;48.762;12.302;2022-10-17T14:29:02;7.78;;;3.08;;
72209;SDS011;60113;48.762;12.302;2022-10-17T14:31:42;7.53;;;3.33;;
72209;SDS011;60113;48.762;12.302;2022-10-17T14:34:15;7.22;;;3.28;;
72209;SDS011;60113;48.762;12.302;2022-10-17T14:36:47;5.53;;;3.15;;
72209;SDS011;60113;48.762;12.302;2022-10-17T14:39:22;10.05;;;3.35;;
72209;SDS011;60113;48.762;12.302;2022-10-17T14:41:50;5.25;;;3.67;;
72209;SDS011;60113;48.762;12.302;2022-10-17T14:44:20;6.22;;;3.83;;
72209;SDS011;60113;48.762;12.302;2022-10-17T14:46:51;10.32;;;3.67;;
72209;SDS011;60113;48.762;12.302;2022-10-17T14:49:22;8.32;;;3.53;;
72209;SDS011;60113;48.762;12.302;2022-10-17T14:52:12;13.45;;;3.90;;
72209;SDS011;60113;48.762;12.302;2022-10-17T14:54:49;5.18;;;3.30;;
72209;SDS011;60113;48.762;12.302;2022-10-17T14:57:22;5.50;;;3.58;;
72209;SDS011;60113;48.762;12.302;2022-10-17T14:59:48;18.77;;;3.92;;
72209;SDS011;60113;48.762;12.302;2022-10-17T15:02:13;11.68;;;3.88;;
72209;SDS011;60113;48.762;12.302;2022-10-17T15:04:39;10.82;;;4.07;;
72209;SDS011;60113;48.762;12.302;2022-10-17T15:07:05;12.68;;;4.00;;
72209;SDS011;60113;48.762;12.302;2022-10-17T15:09:30;8.68;;;3.47;;
72209;SDS011;60113;48.762;12.302;2022-10-17T15:11:58;9.27;;;4.32;;
72209;SDS011;60113;48.762;12.302;2022-10-17T15:14:28;8.32;;;3.92;;
72209;SDS011;60113;48.762;12.302;2022-10-17T15:16:53;5.10;;;3.78;;
72209;SDS011;60113;48.762;12.302;2022-10-17T15:19:19;8.93;;;3.80;;
72209;SDS011;60113;48.762;12.302;2022-10-17T15:21:44;7.65;;;4.10;;
72209;SDS011;60113;48.762;12.302;2022-10-17T15:24:09;12.25;;;4.45;;
72209;SDS011;60113;48.762;12.302;2022-10-17T15:26:35;12.98;;;4.65;;
72209;SDS011;60113;48.762;12.302;2022-10-17T15:29:01;14.93;;;4.70;;
72209;SDS011;60113;48.762;12.302;2022-10-17T15:31:27;14.93;;;4.50;;
72209;SDS011;60113;48.762;12.302;2022-10-17T15:33:55;11.38;;;4.75;;
72209;SDS011;60113;48.762;12.302;2022-10-17T15:36:22;10.05;;;4.60;;
72209;SDS011;60113;48.762;12.302;2022-10-17T15:38:56;10.93;;;4.35;;
72209;SDS011;60113;48.762;12.302;2022-10-17T15:41:25;8.30;;;4.15;;
72209;SDS011;60113;48.762;12.302;2022-10-17T15:43:53;14.75;;;4.20;;
72209;SDS011;60113;48.762;12.302;2022-10-17T15:46:22;5.95;;;3.50;;
72209;SDS011;60113;48.762;12.302;2022-10-17T15:48:51;7.90;;;3.35;;
72209;SDS011;60113;48.762;12.302;2022-10-17T15:51:17;7.82;;;3.60;;
72209;SDS011;60113;48.762;12.302;2022-10-17T15:53:44;9.18;;;3.80;;
72209;SDS011;60113;48.762;12.302;2022-10-17T15:56:25;17.52;;;4.47;;
72209;SDS011;60113;48.762;12.302;2022-10-17T15:58:56;14.07;;;3.90;;
72209;SDS011;60113;48.762;12.302;2022-10-17T16:01:23;9.85;;;4.20;;
72209;SDS011;60113;48.762;12.302;2022-10-17T16:03:51;11.13;;;4.57;;
72209;SDS011;60113;48.762;12.302;2022-10-17T16:06:17;15.40;;;4.80;;
72209;SDS011;60113;48.762;12.302;2022-10-17T16:08:44;7.10;;;4.45;;
72209;SDS011;60113;48.762;12.302;2022-10-17T16:14:03;12.90;;;4.85;;
72209;SDS011;60113;48.762;12.302;2022-10-17T16:16:32;17.48;;;5.20;;
72209;SDS011;60113;48.762;12.302;2022-10-17T16:18:58;11.55;;;5.10;;
72209;SDS011;60113;48.762;12.302;2022-10-17T16:21:25;11.95;;;5.35;;
72209;SDS011;60113;48.762;12.302;2022-10-17T16:23:53;23.58;;;6.32;;
72209;SDS011;60113;48.762;12.302;2022-10-17T16:26:19;25.63;;;5.95;;
72209;SDS011;60113;48.762;12.302;2022-10-17T16:28:45;12.90;;;6.07;;
72209;SDS011;60113;48.762;12.302;2022-10-17T16:31:17;11.82;;;6.43;;
72209;SDS011;60113;48.762;12.302;2022-10-17T16:33:42;21.90;;;7.07;;
72209;SDS011;60113;48.762;12.302;2022-10-17T16:36:08;18.38;;;7.40;;
72209;SDS011;60113;48.762;12.302;2022-10-17T16:38:34;11.05;;;6.97;;
72209;SDS011;60113;48.762;12.302;2022-10-17T16:40:59;11.57;;;7.32;;
72209;SDS011;60113;48.762;12.302;2022-10-17T16:43:25;27.73;;;7.68;;
72209;SDS011;60113;48.762;12.302;2022-10-17T16:45:51;28.25;;;8.88;;
72209;SDS011;60113;48.762;12.302;2022-10-17T16:48:16;17.75;;;7.97;;
72209;SDS011;60113;48.762;12.302;2022-10-17T16:50:41;14.10;;;8.00;;